createdAt,value
2022-08-30T00:01:24.442Z,97545.34
2022-08-30T00:04:26.378Z,97533.69
2022-08-30T00:07:27.974Z,97537.56
2022-08-30T00:10:30.048Z,97538.22
2022-08-30T00:13:32.782Z,97536.72
2022-08-30T00:16:34.425Z,97541.59
2022-08-30T00:19:35.937Z,97531.88
2022-08-30T00:22:37.503Z,97544.56
2022-08-30T00:25:39.830Z,97544.03
2022-08-30T00:28:41.309Z,97537.25
2022-08-30T00:31:42.742Z,97541.09
2022-08-30T00:34:44.218Z,97538.91
2022-08-30T00:37:46.088Z,97544.28
2022-08-30T00:40:47.644Z,97542.88
2022-08-30T00:43:49.126Z,97540.34
2022-08-30T00:46:50.603Z,97546.41
2022-08-30T00:49:56.168Z,97550.25
2022-08-30T00:53:00.464Z,97547.06
2022-08-30T00:56:02.578Z,97545.34
2022-08-30T00:59:06.472Z,97541.78
2022-08-30T01:02:08.104Z,97552.47
2022-08-30T01:05:12.499Z,97552.63
2022-08-30T01:08:20.326Z,97558.84
2022-08-30T01:11:24.370Z,97558.84
2022-08-30T01:14:26.278Z,97554.53
2022-08-30T01:17:29.086Z,97560.41
2022-08-30T01:20:43.280Z,97561.38
2022-08-30T01:23:47.479Z,97558.50
2022-08-30T01:26:48.965Z,97563.56
2022-08-30T01:29:51.468Z,97558.19
2022-08-30T01:32:59.094Z,97552.47
2022-08-30T01:36:04.015Z,97550.44
2022-08-30T01:39:06.065Z,97548.94
2022-08-30T01:42:07.637Z,97548.56
2022-08-30T01:45:09.863Z,97557.34
2022-08-30T01:48:12.865Z,97553.97
2022-08-30T01:51:15.040Z,97549.94
2022-08-30T01:54:16.600Z,97548.69
2022-08-30T01:57:21.078Z,97550.78
2022-08-30T02:00:22.578Z,97553.16
2022-08-30T02:03:24.684Z,97550.94
2022-08-30T02:06:26.633Z,97545.06
2022-08-30T02:09:28.311Z,97551.78
2022-08-30T02:12:30.445Z,97554.81
2022-08-30T02:15:41.488Z,97554.81
2022-08-30T02:18:44.083Z,97555.31
2022-08-30T02:21:45.541Z,97556.66
2022-08-30T02:24:46.998Z,97554.50
2022-08-30T02:27:48.651Z,97557.78
2022-08-30T02:30:50.162Z,97555.94
2022-08-30T02:33:54.293Z,97553.38
2022-08-30T02:36:56.355Z,97554.25
2022-08-30T02:39:57.879Z,97545.53
2022-08-30T02:42:59.402Z,97543.72
2022-08-30T02:46:00.951Z,97546.06
2022-08-30T02:49:29.880Z,97554.47
2022-08-30T02:52:27.953Z,97544.72
2022-08-30T02:55:29.826Z,97535.75
2022-08-30T02:58:31.765Z,97541.56
2022-08-30T03:01:36.124Z,97545.47
2022-08-30T03:04:39.217Z,97535.06
2022-08-30T03:07:41.722Z,97540.97
2022-08-30T03:10:43.586Z,97545.06
2022-08-30T03:13:45.087Z,97538.09
2022-08-30T03:16:46.714Z,97525.66
2022-08-30T03:19:48.199Z,97531.50
2022-08-30T03:22:50.465Z,97518.66
2022-08-30T03:25:53.331Z,97520.50
2022-08-30T03:28:54.790Z,97517.47
2022-08-30T03:31:59.629Z,97523.09
2022-08-30T03:35:01.289Z,97525.59
2022-08-30T03:38:02.919Z,97520.44
2022-08-30T03:41:05.856Z,97514.22
2022-08-30T03:44:09.132Z,97515.91
2022-08-30T03:47:10.678Z,97514.22
2022-08-30T03:50:13.979Z,97522.47
2022-08-30T03:53:15.491Z,97522.13
2022-08-30T03:56:18.608Z,97515.19
2022-08-30T03:59:20.053Z,97519.41
2022-08-30T04:02:21.614Z,97515.69
2022-08-30T04:05:23.173Z,97515.38
2022-08-30T04:08:25.465Z,97516.75
2022-08-30T04:11:27.173Z,97517.41
2022-08-30T04:14:28.658Z,97516.94
2022-08-30T04:17:30.170Z,97522.13
2022-08-30T04:20:31.819Z,97527.84
2022-08-30T04:23:33.468Z,97535.31
2022-08-30T04:26:35.988Z,97534.59
2022-08-30T04:29:37.476Z,97538.66
2022-08-30T04:32:39.365Z,97536.16
2022-08-30T04:35:47.191Z,97530.09
2022-08-30T04:38:48.821Z,97532.75
2022-08-30T04:41:50.414Z,97539.69
2022-08-30T04:44:51.954Z,97551.28
2022-08-30T04:47:53.500Z,97549.97
2022-08-30T04:50:57.949Z,97558.19
2022-08-30T04:53:59.513Z,97559.28
2022-08-30T04:57:01.137Z,97563.47
2022-08-30T05:00:05.249Z,97559.97
2022-08-30T05:03:06.710Z,97564.44
2022-08-30T05:06:08.150Z,97565.47
2022-08-30T05:09:09.719Z,97560.94
2022-08-30T05:12:11.208Z,97569.13
2022-08-30T05:15:15.087Z,97570.84
2022-08-30T05:18:16.574Z,97574.75
2022-08-30T05:21:25.515Z,97578.25
2022-08-30T05:24:27.293Z,97590.34
2022-08-30T05:27:28.861Z,97592.13
2022-08-30T05:30:33.209Z,97586.69
2022-08-30T05:33:36.282Z,97590.44
2022-08-30T05:36:40.756Z,97591.81
2022-08-30T05:39:50.705Z,97586.25
2022-08-30T05:42:53.286Z,97593.38
2022-08-30T05:46:06.626Z,97592.16
2022-08-30T05:49:08.161Z,97584.50
2022-08-30T05:52:09.717Z,97577.84
2022-08-30T05:55:12.990Z,97571.22
2022-08-30T05:58:16.634Z,97573.00
2022-08-30T06:01:20.291Z,97561.97
2022-08-30T06:04:22.102Z,97568.91
2022-08-30T06:07:23.904Z,97568.91
2022-08-30T06:10:25.365Z,97570.50
2022-08-30T06:13:26.876Z,97575.72
2022-08-30T06:16:29.116Z,97575.38
2022-08-30T06:19:30.619Z,97582.72
2022-08-30T06:22:32.061Z,97587.19
2022-08-30T06:25:41.243Z,97592.06
2022-08-30T06:28:43.573Z,97589.50
2022-08-30T06:31:45.730Z,97580.84
2022-08-30T06:34:48.218Z,97574.03
2022-08-30T06:37:49.669Z,97576.44
2022-08-30T06:40:51.198Z,97572.59
2022-08-30T06:43:53.682Z,97573.50
2022-08-30T06:46:55.376Z,97569.59
2022-08-30T06:49:57.549Z,97572.31
2022-08-30T06:53:05.598Z,97566.25
2022-08-30T06:56:09.974Z,97566.44
2022-08-30T06:59:13.591Z,97569.28
2022-08-30T07:02:15.141Z,97557.16
2022-08-30T07:05:18.989Z,97566.72
2022-08-30T07:08:21.089Z,97572.25
2022-08-30T07:11:31.547Z,97564.16
2022-08-30T07:14:32.992Z,97565.97
2022-08-30T07:17:54.259Z,97567.28
2022-08-30T07:20:56.345Z,97563.69
2022-08-30T07:23:59.164Z,97563.25
2022-08-30T07:27:00.642Z,97568.50
2022-08-30T07:30:03.322Z,97566.78
2022-08-30T07:33:06.584Z,97566.25
2022-08-30T07:36:08.916Z,97565.63
2022-08-30T07:39:10.766Z,97572.50
2022-08-30T07:42:12.287Z,97565.25
2022-08-30T07:45:13.947Z,97565.00
2022-08-30T07:48:15.883Z,97570.94
2022-08-30T07:51:22.191Z,97572.44
2022-08-30T07:54:24.205Z,97569.69
2022-08-30T07:57:26.277Z,97563.66
2022-08-30T08:00:27.983Z,97569.44
2022-08-30T08:03:29.903Z,97566.03
2022-08-30T08:06:35.116Z,97565.09
2022-08-30T08:09:39.995Z,97572.75
2022-08-30T08:12:41.760Z,97569.41
2022-08-30T08:15:43.247Z,97568.47
2022-08-30T08:18:44.796Z,97567.50
2022-08-30T08:21:46.311Z,97570.50
2022-08-30T08:24:48.942Z,97570.13
2022-08-30T08:27:51.876Z,97573.38
2022-08-30T08:30:53.409Z,97567.81
2022-08-30T08:33:56.497Z,97568.19
2022-08-30T08:36:57.963Z,97562.94
2022-08-30T08:39:59.683Z,97560.50
2022-08-30T08:43:17.004Z,97549.00
2022-08-30T08:46:24.815Z,97551.84
2022-08-30T08:49:26.414Z,97555.22
2022-08-30T08:52:57.610Z,97551.59
2022-08-30T08:55:59.209Z,97546.59
2022-08-30T08:59:00.731Z,97548.47
2022-08-30T09:02:19.593Z,97546.66
2022-08-30T09:05:23.518Z,97544.03
2022-08-30T09:08:25.344Z,97548.66
2022-08-30T09:11:30.010Z,97535.81
2022-08-30T09:14:38.825Z,97538.78
2022-08-30T09:17:51.133Z,97542.56
2022-08-30T09:20:54.590Z,97534.25
2022-08-30T09:24:04.520Z,97530.28
2022-08-30T09:27:16.881Z,97525.91
2022-08-30T09:30:31.279Z,97516.75
2022-08-30T09:33:36.701Z,97524.91
2022-08-30T09:36:43.706Z,97523.84
2022-08-30T09:39:45.698Z,97515.91
2022-08-30T09:43:03.627Z,97516.75
2022-08-30T09:46:11.013Z,97511.09
2022-08-30T09:49:35.027Z,97504.19
2022-08-30T09:52:55.611Z,97514.16
2022-08-30T09:56:07.776Z,97502.53
2022-08-30T09:59:41.779Z,97496.31
2022-08-30T10:02:56.605Z,97500.19
2022-08-30T10:06:05.909Z,97499.28
2022-08-30T10:09:32.518Z,97489.53
2022-08-30T10:12:44.416Z,97485.41
2022-08-30T10:15:50.300Z,97483.28
2022-08-30T10:19:04.202Z,97481.31
2022-08-30T10:22:14.860Z,97475.84
2022-08-30T10:25:25.042Z,97454.91
2022-08-30T10:28:34.959Z,97463.78
2022-08-30T10:31:46.121Z,97467.84
2022-08-30T10:34:56.780Z,97464.91
2022-08-30T10:38:10.182Z,97457.47
2022-08-30T10:41:28.161Z,97459.34
2022-08-30T10:44:34.155Z,97454.84
2022-08-30T10:47:53.563Z,97455.16
2022-08-30T10:51:01.055Z,97453.69
2022-08-30T10:54:18.566Z,97447.63
2022-08-30T10:57:20.938Z,97453.84
2022-08-30T11:00:36.079Z,97441.91
2022-08-30T11:03:51.431Z,97439.25
2022-08-30T11:06:59.239Z,97446.97
2022-08-30T11:10:10.444Z,97443.69
2022-08-30T11:13:15.982Z,97445.00
2022-08-30T11:16:19.890Z,97442.50
2022-08-30T11:19:32.152Z,97446.09
2022-08-30T11:22:39.271Z,97449.47
2022-08-30T11:25:57.697Z,97437.19
2022-08-30T11:29:02.533Z,97443.72
2022-08-30T11:32:13.141Z,97445.63
2022-08-30T11:35:55.354Z,97450.78
2022-08-30T11:39:00.417Z,97450.34
2022-08-30T11:42:25.038Z,97446.78
2022-08-30T11:45:35.982Z,97442.88
2022-08-30T11:48:53.618Z,97441.69
2022-08-30T11:52:26.957Z,97434.63
2022-08-30T11:55:38.761Z,97441.44
2022-08-30T11:58:50.889Z,97448.09
2022-08-30T12:01:53.397Z,97438.44
2022-08-30T12:04:56.154Z,97434.50
2022-08-30T12:08:08.751Z,97427.88
2022-08-30T12:11:10.362Z,97430.47
2022-08-30T12:14:33.889Z,97433.41
2022-08-30T12:18:03.289Z,97432.56
2022-08-30T12:21:28.163Z,97424.06
2022-08-30T12:24:36.628Z,97423.31
2022-08-30T12:27:38.358Z,97423.22
2022-08-30T12:30:40.827Z,97417.63
2022-08-30T12:34:03.239Z,97417.38
2022-08-30T12:37:20.638Z,97424.34
2022-08-30T12:40:25.463Z,97419.66
2022-08-30T12:43:38.825Z,97416.63
2022-08-30T12:46:45.497Z,97414.66
2022-08-30T12:49:48.799Z,97410.69
2022-08-30T12:53:04.270Z,97406.94
2022-08-30T12:56:14.866Z,97407.38
2022-08-30T12:59:39.363Z,97408.88
2022-08-30T13:02:43.843Z,97399.63
2022-08-30T13:05:48.005Z,97404.59
2022-08-30T13:08:51.821Z,97395.44
2022-08-30T13:11:54.066Z,97388.91
2022-08-30T13:15:16.886Z,97391.72
2022-08-30T13:18:29.956Z,97380.56
2022-08-30T13:21:34.133Z,97373.91
2022-08-30T13:24:35.589Z,97375.56
2022-08-30T13:27:39.840Z,97367.94
2022-08-30T13:30:41.551Z,97367.97
2022-08-30T13:33:46.669Z,97366.81
2022-08-30T13:36:56.913Z,97364.22
2022-08-30T13:40:03.902Z,97354.56
2022-08-30T13:43:06.138Z,97356.47
2022-08-30T13:46:09.264Z,97347.59
2022-08-30T13:49:50.690Z,97345.69
2022-08-30T13:52:52.565Z,97337.09
2022-08-30T13:55:54.091Z,97341.88
2022-08-30T13:58:55.609Z,97346.16
2022-08-30T14:02:13.371Z,97338.91
2022-08-30T14:05:37.658Z,97331.06
2022-08-30T14:08:47.853Z,97332.13
2022-08-30T14:11:50.954Z,97331.66
2022-08-30T14:14:55.309Z,97317.53
2022-08-30T14:18:00.402Z,97319.53
2022-08-30T14:21:02.163Z,97318.22
2022-08-30T14:24:06.323Z,97313.31
2022-08-30T14:27:07.866Z,97312.50
2022-08-30T14:30:10.026Z,97317.63
2022-08-30T14:33:12.134Z,97311.41
2022-08-30T14:36:16.039Z,97310.94
2022-08-30T14:39:19.703Z,97310.59
2022-08-30T14:42:21.434Z,97311.81
2022-08-30T14:45:23.009Z,97309.31
2022-08-30T14:48:24.868Z,97305.31
2022-08-30T14:51:29.689Z,97304.56
2022-08-30T14:54:32.019Z,97305.03
2022-08-30T14:57:35.126Z,97303.78
2022-08-30T15:00:39.659Z,97309.00
2022-08-30T15:03:42.446Z,97293.91
2022-08-30T15:06:47.659Z,97289.75
2022-08-30T15:09:49.280Z,97298.06
2022-08-30T15:12:53.688Z,97294.03
2022-08-30T15:15:55.459Z,97290.38
2022-08-30T15:18:58.204Z,97289.91
2022-08-30T15:22:04.732Z,97299.06
2022-08-30T15:25:07.331Z,97289.47
2022-08-30T15:28:10.946Z,97286.34
2022-08-30T15:31:13.057Z,97287.19
2022-08-30T15:34:18.053Z,97287.19
2022-08-30T15:37:22.799Z,97279.56
2022-08-30T15:40:24.517Z,97282.06
2022-08-30T15:43:28.049Z,97281.00
2022-08-30T15:46:37.475Z,97268.31
2022-08-30T15:49:38.971Z,97267.59
2022-08-30T15:52:40.592Z,97272.44
2022-08-30T15:55:42.339Z,97268.84
2022-08-30T15:58:44.559Z,97260.88
2022-08-30T16:01:47.628Z,97262.94
2022-08-30T16:04:49.555Z,97259.84
2022-08-30T16:07:54.328Z,97254.25
2022-08-30T16:10:56.027Z,97256.72
2022-08-30T16:13:58.838Z,97251.28
2022-08-30T16:17:00.694Z,97255.72
2022-08-30T16:20:02.461Z,97254.25
2022-08-30T16:23:03.940Z,97255.94
2022-08-30T16:26:06.538Z,97252.66
2022-08-30T16:29:10.403Z,97253.84
2022-08-30T16:32:12.290Z,97251.91
2022-08-30T16:35:13.746Z,97245.72
2022-08-30T16:38:15.209Z,97246.19
2022-08-30T16:41:21.390Z,97243.94
2022-08-30T16:44:23.568Z,97255.66
2022-08-30T16:47:31.373Z,97245.25
2022-08-30T16:50:37.611Z,97244.47
2022-08-30T16:53:40.258Z,97233.88
2022-08-30T16:56:41.984Z,97238.28
2022-08-30T16:59:44.486Z,97239.03
2022-08-30T17:02:53.532Z,97233.28
2022-08-30T17:05:57.293Z,97238.63
2022-08-30T17:08:58.903Z,97249.00
2022-08-30T17:12:00.378Z,97249.47
2022-08-30T17:15:06.176Z,97252.34
2022-08-30T17:18:07.905Z,97256.22
2022-08-30T17:21:09.685Z,97253.56
2022-08-30T17:24:11.269Z,97269.16
2022-08-30T17:27:12.775Z,97268.75
2022-08-30T17:30:14.374Z,97277.59
2022-08-30T17:33:15.846Z,97281.00
2022-08-30T17:36:19.381Z,97285.63
2022-08-30T17:39:23.487Z,97288.59
2022-08-30T17:42:25.001Z,97289.94
2022-08-30T17:45:31.328Z,97293.19
2022-08-30T17:48:35.866Z,97295.50
2022-08-30T17:51:40.702Z,97299.31
2022-08-30T17:54:43.096Z,97303.41
2022-08-30T17:57:45.020Z,97303.53
2022-08-30T18:00:46.745Z,97297.44
2022-08-30T18:03:57.123Z,97306.06
2022-08-30T18:07:03.787Z,97308.84
2022-08-30T18:10:05.940Z,97315.13
2022-08-30T18:13:07.817Z,97316.38
2022-08-30T18:16:10.480Z,97313.72
2022-08-30T18:19:13.829Z,97316.44
2022-08-30T18:22:16.492Z,97313.94
2022-08-30T18:25:19.169Z,97311.00
2022-08-30T18:28:20.679Z,97316.88
2022-08-30T18:31:22.341Z,97323.38
2022-08-30T18:34:23.827Z,97320.50
2022-08-30T18:37:25.300Z,97324.91
2022-08-30T18:40:26.778Z,97330.97
2022-08-30T18:43:30.794Z,97333.03
2022-08-30T18:46:32.686Z,97339.31
2022-08-30T18:49:35.738Z,97347.03
2022-08-30T18:52:37.456Z,97347.06
2022-08-30T18:55:42.153Z,97353.09
2022-08-30T18:58:44.972Z,97357.50
2022-08-30T19:01:48.643Z,97353.72
2022-08-30T19:04:50.681Z,97362.91
2022-08-30T19:07:54.965Z,97365.41
2022-08-30T19:11:01.802Z,97354.94
2022-08-30T19:14:07.673Z,97360.81
2022-08-30T19:17:09.401Z,97363.31
2022-08-30T19:20:14.262Z,97363.75
2022-08-30T19:23:17.310Z,97365.13
2022-08-30T19:26:19.195Z,97363.69
2022-08-30T19:29:20.686Z,97360.94
2022-08-30T19:32:22.518Z,97371.78
2022-08-30T19:35:24.083Z,97372.16
2022-08-30T19:38:26.525Z,97378.00
2022-08-30T19:41:29.462Z,97376.56
2022-08-30T19:44:31.130Z,97377.38
2022-08-30T19:47:32.774Z,97376.31
2022-08-30T19:50:34.326Z,97377.09
2022-08-30T19:53:38.126Z,97373.28
2022-08-30T19:56:39.637Z,97376.59
2022-08-30T19:59:41.134Z,97371.81
2022-08-30T20:02:42.862Z,97370.94
2022-08-30T20:05:45.669Z,97379.44
2022-08-30T20:08:47.407Z,97378.53
2022-08-30T20:11:49.550Z,97379.56
2022-08-30T20:14:58.784Z,97378.28
2022-08-30T20:18:06.101Z,97390.97
2022-08-30T20:21:15.082Z,97380.47
2022-08-30T20:24:16.794Z,97383.59
2022-08-30T20:27:18.292Z,97386.47
2022-08-30T20:30:20.831Z,97383.72
2022-08-30T20:33:24.506Z,97381.34
2022-08-30T20:36:26.438Z,97380.03
2022-08-30T20:39:27.929Z,97371.28
2022-08-30T20:42:29.590Z,97377.09
2022-08-30T20:45:32.674Z,97370.41
2022-08-30T20:48:34.970Z,97363.72
2022-08-30T20:51:36.453Z,97356.75
2022-08-30T20:54:40.922Z,97354.66
2022-08-30T20:57:42.463Z,97349.66
2022-08-30T21:00:46.038Z,97353.31
2022-08-30T21:03:47.815Z,97351.13
2022-08-30T21:06:49.323Z,97352.38
2022-08-30T21:09:53.931Z,97353.00
2022-08-30T21:12:55.353Z,97356.69
2022-08-30T21:16:00.265Z,97357.66
2022-08-30T21:19:03.291Z,97364.59
2022-08-30T21:22:05.401Z,97371.22
2022-08-30T21:25:07.133Z,97376.56
2022-08-30T21:28:09.035Z,97372.97
2022-08-30T21:31:14.503Z,97375.09
2022-08-30T21:34:17.439Z,97376.00
2022-08-30T21:37:19.147Z,97372.47
2022-08-30T21:40:21.300Z,97379.84
2022-08-30T21:43:22.805Z,97382.94
2022-08-30T21:46:25.821Z,97381.06
2022-08-30T21:49:27.731Z,97375.00
2022-08-30T21:52:29.226Z,97381.50
2022-08-30T21:55:31.351Z,97373.16
2022-08-30T21:58:32.897Z,97380.41
2022-08-30T22:01:36.127Z,97381.06
2022-08-30T22:04:41.355Z,97381.28
2022-08-30T22:07:43.243Z,97378.56
2022-08-30T22:10:44.798Z,97385.19
2022-08-30T22:13:48.275Z,97382.28
2022-08-30T22:16:50.165Z,97386.69
2022-08-30T22:19:52.518Z,97384.63
2022-08-30T22:22:53.967Z,97381.72
2022-08-30T22:25:55.875Z,97385.91
2022-08-30T22:28:57.867Z,97393.25
2022-08-30T22:31:59.604Z,97389.13
2022-08-30T22:35:01.157Z,97384.75
2022-08-30T22:38:02.746Z,97394.09
2022-08-30T22:41:09.464Z,97397.75
2022-08-30T22:44:11.758Z,97398.41
2022-08-30T22:47:13.222Z,97399.59
2022-08-30T22:50:14.829Z,97394.41
2022-08-30T22:53:16.357Z,97395.50
2022-08-30T22:56:20.810Z,97391.19
2022-08-30T22:59:30.415Z,97393.50
2022-08-30T23:02:34.670Z,97392.50
2022-08-30T23:05:37.007Z,97391.19
2022-08-30T23:08:38.563Z,97392.81
2022-08-30T23:11:40.088Z,97398.78
2022-08-30T23:14:41.530Z,97400.44
2022-08-30T23:17:43.030Z,97412.59
2022-08-30T23:20:45.371Z,97408.53
2022-08-30T23:24:05.617Z,97412.50
2022-08-30T23:27:26.004Z,97408.72
2022-08-30T23:30:46.395Z,97414.09
2022-08-30T23:34:06.216Z,97411.66
2022-08-30T23:37:30.105Z,97408.06
2022-08-30T23:40:49.864Z,97409.34
2022-08-30T23:44:10.239Z,97407.19
2022-08-30T23:47:32.597Z,97399.28
2022-08-30T23:50:52.582Z,97391.28
2022-08-30T23:54:12.548Z,97400.84
2022-08-30T23:57:32.337Z,97393.13
